createdAt,value
2023-05-04T00:00:55.612Z,87.48
2023-05-04T00:01:55.616Z,87.48
2023-05-04T00:02:55.713Z,87.52
2023-05-04T00:03:55.813Z,87.52
2023-05-04T00:05:01.800Z,87.41
2023-05-04T00:05:55.563Z,87.41
2023-05-04T00:06:55.560Z,87.41
2023-05-04T00:07:55.543Z,87.41
2023-05-04T00:08:55.558Z,87.31
2023-05-04T00:09:55.538Z,87.31
2023-05-04T00:10:55.515Z,87.31
2023-05-04T00:11:55.534Z,87.31
2023-05-04T00:12:55.541Z,87.21
2023-05-04T00:13:55.490Z,87.21
2023-05-04T00:14:55.475Z,87.21
2023-05-04T00:15:55.494Z,87.21
2023-05-04T00:16:55.463Z,87.21
2023-05-04T00:17:55.474Z,87.25
2023-05-04T00:18:55.431Z,87.25
2023-05-04T00:19:55.445Z,87.35
2023-05-04T00:20:55.410Z,87.35
2023-05-04T00:21:55.423Z,87.46
2023-05-04T00:22:55.387Z,87.56
2023-05-04T00:23:55.392Z,87.66
2023-05-04T00:24:55.358Z,87.76
2023-05-04T00:25:55.357Z,87.87
2023-05-04T00:26:55.352Z,87.87
2023-05-04T00:27:55.330Z,87.97
2023-05-04T00:28:55.330Z,88.07
2023-05-04T00:29:55.311Z,88.07
2023-05-04T00:30:55.309Z,88.07
2023-05-04T00:31:55.359Z,87.97
2023-05-04T00:32:55.328Z,87.97
2023-05-04T00:33:55.319Z,88.01
2023-05-04T00:34:55.284Z,87.97
2023-05-04T00:35:55.261Z,88.01
2023-05-04T00:36:55.252Z,88.01
2023-05-04T00:37:55.214Z,88.01
2023-05-04T00:38:55.213Z,87.91
2023-05-04T00:39:55.209Z,88.01
2023-05-04T00:40:55.200Z,88.12
2023-05-04T00:41:55.201Z,88.32
2023-05-04T00:42:55.163Z,88.43
2023-05-04T00:43:55.163Z,88.53
2023-05-04T00:44:55.146Z,88.64
2023-05-04T00:45:55.166Z,88.74
2023-05-04T00:46:55.287Z,88.64
2023-05-04T00:47:55.195Z,88.78
2023-05-04T00:48:55.110Z,88.88
2023-05-04T00:49:55.112Z,88.88
2023-05-04T00:50:55.074Z,88.98
2023-05-04T00:51:55.115Z,89.09
2023-05-04T00:52:55.049Z,89.29
2023-05-04T00:53:55.074Z,89.50
2023-05-04T00:54:55.151Z,89.71
2023-05-04T00:55:55.028Z,89.81
2023-05-04T00:56:55.050Z,89.92
2023-05-04T00:57:55.044Z,89.92
2023-05-04T00:58:55.111Z,89.92
2023-05-04T00:59:55.014Z,89.92
2023-05-04T01:00:55.022Z,90.02
2023-05-04T01:01:55.001Z,90.23
2023-05-04T01:02:55.051Z,90.23
2023-05-04T01:03:55.034Z,90.33
2023-05-04T01:04:54.961Z,90.44
2023-05-04T01:05:54.987Z,90.53
2023-05-04T01:06:54.946Z,90.53
2023-05-04T01:07:54.917Z,90.64
2023-05-04T01:08:54.903Z,90.53
2023-05-04T01:09:54.875Z,90.53
2023-05-04T01:10:54.867Z,90.53
2023-05-04T01:11:54.881Z,90.44
2023-05-04T01:12:54.893Z,90.53
2023-05-04T01:13:54.843Z,90.53
2023-05-04T01:14:54.819Z,90.64
2023-05-04T01:15:54.805Z,90.53
2023-05-04T01:16:54.863Z,90.64
2023-05-04T01:17:54.838Z,90.64
2023-05-04T01:18:54.798Z,90.74
2023-05-04T01:19:54.785Z,90.74
2023-05-04T01:20:54.778Z,90.74
2023-05-04T01:21:54.765Z,90.64
2023-05-04T01:22:54.733Z,90.74
2023-05-04T01:23:54.727Z,90.95
2023-05-04T01:24:54.726Z,91.16
2023-05-04T01:25:54.709Z,91.26
2023-05-04T01:26:54.710Z,91.47
2023-05-04T01:27:54.674Z,91.47
2023-05-04T01:28:54.674Z,91.47
2023-05-04T01:29:54.690Z,91.57
2023-05-04T01:30:54.698Z,91.57
2023-05-04T01:31:54.659Z,91.57
2023-05-04T01:32:54.655Z,91.57
2023-05-04T01:33:54.610Z,91.67
2023-05-04T01:34:54.604Z,91.67
2023-05-04T01:35:54.616Z,91.78
2023-05-04T01:36:54.586Z,91.88
2023-05-04T01:37:54.571Z,91.78
2023-05-04T01:38:54.559Z,91.99
2023-05-04T01:39:54.535Z,92.09
2023-05-04T01:40:54.547Z,92.09
2023-05-04T01:41:54.554Z,92.09
2023-05-04T01:42:54.515Z,92.19
2023-05-04T01:43:54.517Z,92.19
2023-05-04T01:44:54.487Z,92.19
2023-05-04T01:45:54.501Z,92.19
2023-05-04T01:46:54.485Z,92.19
2023-05-04T01:47:54.468Z,92.19
2023-05-04T01:48:54.440Z,92.19
2023-05-04T01:49:54.449Z,92.19
2023-05-04T01:50:54.430Z,92.09
2023-05-04T01:51:54.419Z,91.99
2023-05-04T01:52:54.394Z,92.09
2023-05-04T01:53:54.399Z,92.09
2023-05-04T01:54:54.369Z,92.09
2023-05-04T01:55:54.403Z,92.15
2023-05-04T01:56:54.372Z,92.15
2023-05-04T01:57:54.342Z,92.36
2023-05-04T01:58:54.326Z,92.36
2023-05-04T01:59:54.330Z,92.36
2023-05-04T02:00:54.327Z,92.36
2023-05-04T02:01:54.339Z,92.40
2023-05-04T02:02:54.469Z,92.40
2023-05-04T02:03:54.451Z,92.40
2023-05-04T02:04:54.266Z,92.40
2023-05-04T02:05:54.266Z,92.40
2023-05-04T02:06:54.274Z,92.50
2023-05-04T02:07:54.272Z,92.57
2023-05-04T02:08:54.227Z,92.57
2023-05-04T02:09:54.224Z,92.57
2023-05-04T02:10:54.239Z,92.57
2023-05-04T02:11:54.248Z,92.46
2023-05-04T02:12:54.317Z,92.57
2023-05-04T02:13:54.224Z,92.46
2023-05-04T02:14:54.216Z,92.36
2023-05-04T02:15:54.173Z,92.36
2023-05-04T02:16:54.183Z,92.25
2023-05-04T02:17:54.188Z,92.25
2023-05-04T02:18:54.116Z,92.25
2023-05-04T02:19:54.109Z,92.36
2023-05-04T02:20:54.121Z,92.36
2023-05-04T02:21:54.111Z,92.46
2023-05-04T02:22:54.075Z,92.36
2023-05-04T02:23:54.060Z,92.36
2023-05-04T02:24:54.046Z,92.36
2023-05-04T02:25:54.042Z,92.25
2023-05-04T02:26:54.051Z,92.25
2023-05-04T02:27:54.012Z,92.15
2023-05-04T02:28:54.005Z,92.15
2023-05-04T02:29:54.006Z,92.15
2023-05-04T02:30:53.995Z,92.25
2023-05-04T02:31:54.013Z,92.25
2023-05-04T02:32:53.984Z,92.25
2023-05-04T02:33:53.948Z,92.15
2023-05-04T02:34:53.964Z,92.25
2023-05-04T02:35:53.933Z,92.25
2023-05-04T02:36:53.960Z,92.15
2023-05-04T02:37:53.904Z,92.15
2023-05-04T02:38:53.893Z,92.15
2023-05-04T02:39:53.895Z,92.15
2023-05-04T02:40:53.893Z,92.15
2023-05-04T02:41:53.878Z,92.15
2023-05-04T02:42:53.845Z,92.15
2023-05-04T02:43:53.854Z,92.05
2023-05-04T02:44:53.836Z,92.15
2023-05-04T02:45:53.833Z,92.15
2023-05-04T02:46:53.845Z,92.15
2023-05-04T02:47:53.821Z,92.15
2023-05-04T02:48:53.787Z,92.15
2023-05-04T02:49:53.803Z,92.15
2023-05-04T02:50:53.775Z,92.15
2023-05-04T02:51:53.757Z,92.15
2023-05-04T02:52:53.761Z,92.05
2023-05-04T02:53:53.753Z,92.05
2023-05-04T02:54:53.729Z,92.05
2023-05-04T02:55:53.733Z,92.05
2023-05-04T02:56:53.714Z,92.05
2023-05-04T02:57:53.706Z,92.05
2023-05-04T02:58:53.678Z,92.15
2023-05-04T02:59:53.722Z,92.05
2023-05-04T03:00:53.689Z,92.05
2023-05-04T03:01:53.713Z,92.05
2023-05-04T03:02:53.677Z,92.05
2023-05-04T03:03:53.702Z,92.05
2023-05-04T03:04:53.621Z,92.15
2023-05-04T03:05:53.632Z,92.05
2023-05-04T03:06:53.601Z,92.15
2023-05-04T03:07:53.608Z,92.05
2023-05-04T03:08:53.603Z,92.05
2023-05-04T03:09:53.575Z,92.05
2023-05-04T03:10:53.550Z,92.05
2023-05-04T03:11:53.545Z,92.05
2023-05-04T03:12:53.592Z,92.05
2023-05-04T03:13:53.531Z,92.05
2023-05-04T03:14:53.512Z,92.05
2023-05-04T03:15:53.529Z,92.05
2023-05-04T03:16:53.521Z,92.05
2023-05-04T03:17:53.540Z,92.05
2023-05-04T03:18:53.487Z,92.15
2023-05-04T03:19:53.491Z,92.15
2023-05-04T03:20:53.457Z,92.15
2023-05-04T03:21:53.446Z,92.25
2023-05-04T03:22:53.449Z,92.15
2023-05-04T03:23:53.462Z,92.15
2023-05-04T03:24:53.402Z,92.05
2023-05-04T03:25:53.382Z,92.05
2023-05-04T03:26:53.405Z,92.05
2023-05-04T03:27:53.380Z,92.25
2023-05-04T03:28:53.352Z,92.25
2023-05-04T03:29:53.372Z,92.25
2023-05-04T03:30:53.339Z,92.15
2023-05-04T03:31:53.400Z,92.15
2023-05-04T03:32:53.351Z,92.15
2023-05-04T03:33:53.330Z,92.15
2023-05-04T03:34:53.292Z,92.15
2023-05-04T03:35:53.296Z,92.15
2023-05-04T03:36:53.268Z,92.15
2023-05-04T03:37:53.277Z,92.25
2023-05-04T03:38:53.250Z,92.05
2023-05-04T03:39:53.235Z,91.90
2023-05-04T03:40:53.252Z,91.90
2023-05-04T03:41:53.217Z,91.90
2023-05-04T03:42:53.220Z,91.90
2023-05-04T03:43:53.207Z,91.90
2023-05-04T03:44:53.198Z,91.80
2023-05-04T03:45:53.271Z,91.80
2023-05-04T03:46:53.172Z,91.80
2023-05-04T03:47:53.259Z,91.80
2023-05-04T03:48:53.138Z,91.80
2023-05-04T03:49:53.164Z,91.69
2023-05-04T03:50:53.121Z,91.69
2023-05-04T03:51:53.096Z,91.69
2023-05-04T03:52:53.118Z,91.69
2023-05-04T03:53:53.085Z,91.69
2023-05-04T03:54:53.114Z,91.80
2023-05-04T03:55:53.062Z,91.80
2023-05-04T03:56:53.056Z,91.80
2023-05-04T03:57:53.056Z,91.59
2023-05-04T03:58:53.038Z,91.49
2023-05-04T03:59:53.705Z,91.49
2023-05-04T04:00:53.027Z,91.49
2023-05-04T04:01:53.011Z,91.17
2023-05-04T04:02:53.130Z,91.13
2023-05-04T04:03:53.089Z,91.13
2023-05-04T04:04:52.972Z,90.83
2023-05-04T04:05:52.985Z,90.83
2023-05-04T04:06:52.944Z,90.93
2023-05-04T04:07:52.957Z,90.83
2023-05-04T04:08:52.920Z,90.83
2023-05-04T04:09:52.920Z,90.83
2023-05-04T04:10:52.907Z,90.89
2023-05-04T04:11:52.891Z,90.89
2023-05-04T04:12:52.970Z,90.89
2023-05-04T04:13:52.876Z,90.78
2023-05-04T04:14:52.911Z,90.78
2023-05-04T04:15:52.890Z,90.78
2023-05-04T04:16:52.836Z,90.58
2023-05-04T04:17:52.962Z,90.68
2023-05-04T04:18:52.833Z,90.68
2023-05-04T04:19:52.831Z,90.68
2023-05-04T04:20:52.793Z,90.64
2023-05-04T04:21:52.785Z,90.53
2023-05-04T04:22:52.787Z,90.33
2023-05-04T04:23:52.779Z,89.81
2023-05-04T04:24:52.754Z,89.19
2023-05-04T04:25:52.749Z,88.95
2023-05-04T04:26:52.730Z,89.15
2023-05-04T04:27:52.742Z,89.15
2023-05-04T04:28:52.700Z,89.15
2023-05-04T04:29:52.718Z,89.15
2023-05-04T04:30:52.686Z,89.11
2023-05-04T04:31:52.768Z,89.22
2023-05-04T04:32:52.703Z,88.49
2023-05-04T04:33:52.659Z,88.49
2023-05-04T04:34:52.665Z,88.70
2023-05-04T04:35:52.617Z,88.29
2023-05-04T04:36:52.625Z,87.66
2023-05-04T04:37:52.620Z,87.63
2023-05-04T04:38:52.615Z,87.83
2023-05-04T04:39:52.601Z,87.63
2023-05-04T04:40:52.572Z,87.63
2023-05-04T04:41:52.572Z,87.63
2023-05-04T04:42:52.593Z,87.63
2023-05-04T04:43:52.553Z,87.63
2023-05-04T04:44:52.553Z,87.83
2023-05-04T04:45:52.510Z,87.93
2023-05-04T04:46:52.535Z,87.90
2023-05-04T04:47:52.574Z,87.90
2023-05-04T04:48:52.480Z,87.79
2023-05-04T04:49:52.499Z,87.17
2023-05-04T04:50:52.468Z,87.38
2023-05-04T04:51:52.492Z,87.79
2023-05-04T04:52:52.451Z,87.69
2023-05-04T04:53:52.420Z,88.10
2023-05-04T04:54:52.421Z,88.10
2023-05-04T04:55:52.420Z,88.10
2023-05-04T04:56:52.402Z,87.13
2023-05-04T04:57:52.409Z,87.03
2023-05-04T04:58:52.382Z,87.24
2023-05-04T04:59:52.375Z,86.93
2023-05-04T05:00:52.422Z,87.03
2023-05-04T05:01:52.357Z,87.09
2023-05-04T05:02:52.389Z,86.47
2023-05-04T05:03:52.315Z,85.86
2023-05-04T05:04:52.333Z,85.55
2023-05-04T05:05:52.301Z,85.92
2023-05-04T05:06:52.292Z,85.92
2023-05-04T05:07:52.302Z,86.43
2023-05-04T05:08:52.272Z,86.33
2023-05-04T05:09:52.269Z,85.61
2023-05-04T05:10:52.245Z,85.92
2023-05-04T05:11:52.247Z,86.19
2023-05-04T05:12:52.322Z,86.50
2023-05-04T05:13:52.221Z,86.50
2023-05-04T05:14:52.200Z,86.29
2023-05-04T05:15:52.232Z,86.60
2023-05-04T05:16:52.241Z,86.70
2023-05-04T05:17:52.229Z,86.66
2023-05-04T05:18:52.159Z,86.56
2023-05-04T05:19:52.147Z,84.20
2023-05-04T05:20:52.134Z,83.17
2023-05-04T05:21:52.130Z,83.58
2023-05-04T05:22:52.167Z,84.91
2023-05-04T05:23:52.119Z,84.50
2023-05-04T05:24:52.099Z,82.82
2023-05-04T05:25:52.119Z,82.20
2023-05-04T05:26:52.077Z,84.77
2023-05-04T05:27:52.091Z,82.82
2023-05-04T05:28:52.056Z,82.20
2023-05-04T05:29:52.042Z,83.29
2023-05-04T05:30:52.286Z,84.12
2023-05-04T05:31:52.012Z,80.21
2023-05-04T05:32:52.055Z,79.60
2023-05-04T05:33:52.013Z,80.01
2023-05-04T05:34:51.983Z,80.69
2023-05-04T05:35:51.974Z,81.82
2023-05-04T05:36:51.957Z,82.75
2023-05-04T05:37:51.994Z,80.90
2023-05-04T05:38:51.935Z,81.30
2023-05-04T05:39:51.950Z,81.51
2023-05-04T05:40:51.928Z,82.23
2023-05-04T05:41:51.903Z,80.79
2023-05-04T05:42:51.914Z,78.23
2023-05-04T05:43:51.921Z,78.53
2023-05-04T05:44:51.924Z,77.78
2023-05-04T05:45:51.898Z,77.98
2023-05-04T05:46:51.898Z,79.32
2023-05-04T05:47:51.896Z,80.65
2023-05-04T05:48:51.856Z,80.76
2023-05-04T05:49:51.824Z,81.99
2023-05-04T05:50:51.812Z,82.60
2023-05-04T05:51:51.813Z,82.81
2023-05-04T05:52:51.852Z,83.94
2023-05-04T05:53:51.811Z,81.37
2023-05-04T05:54:51.779Z,81.06
2023-05-04T05:55:51.781Z,80.10
2023-05-04T05:56:51.769Z,80.41
2023-05-04T05:57:51.769Z,79.49
2023-05-04T05:58:51.754Z,79.96
2023-05-04T05:59:51.746Z,80.07
2023-05-04T06:00:51.713Z,78.22
2023-05-04T06:01:51.734Z,78.32
2023-05-04T06:02:51.797Z,79.35
2023-05-04T06:03:51.832Z,77.29
2023-05-04T06:04:51.740Z,78.08
2023-05-04T06:05:58.282Z,79.82
2023-05-04T06:06:51.638Z,80.44
2023-05-04T06:07:51.629Z,81.05
2023-05-04T06:08:51.618Z,81.57
2023-05-04T06:09:51.603Z,81.05
2023-05-04T06:10:51.586Z,80.85
2023-05-04T06:11:53.431Z,78.80
2023-05-04T06:12:51.780Z,78.90
2023-05-04T06:13:51.607Z,79.52
2023-05-04T06:14:52.155Z,79.52
2023-05-04T06:15:51.558Z,78.25
2023-05-04T06:16:51.519Z,77.33
2023-05-04T06:17:51.578Z,78.05
2023-05-04T06:18:51.488Z,78.66
2023-05-04T06:19:51.553Z,77.02
2023-05-04T06:20:51.478Z,76.10
2023-05-04T06:21:51.469Z,77.23
2023-05-04T06:22:51.471Z,78.45
2023-05-04T06:23:51.540Z,79.96
2023-05-04T06:24:51.452Z,77.60
2023-05-04T06:25:51.421Z,76.88
2023-05-04T06:26:51.411Z,79.34
2023-05-04T06:27:52.332Z,77.70
2023-05-04T06:28:51.391Z,77.50
2023-05-04T06:29:51.369Z,76.88
2023-05-04T06:30:51.364Z,77.80
2023-05-04T06:31:51.422Z,78.49
2023-05-04T06:32:51.484Z,77.26
2023-05-04T06:33:51.338Z,77.97
2023-05-04T06:34:51.310Z,76.84
2023-05-04T06:35:51.304Z,76.23
2023-05-04T06:36:51.288Z,76.50
2023-05-04T06:38:51.266Z,75.17
2023-05-04T06:39:51.289Z,75.48
2023-05-04T06:40:51.251Z,75.34
2023-05-04T06:41:51.240Z,74.93
2023-05-04T06:42:51.277Z,76.16
2023-05-04T06:43:51.219Z,75.45
2023-05-04T06:44:51.207Z,74.63
2023-05-04T06:45:51.216Z,73.81
2023-05-04T06:46:51.191Z,74.49
2023-05-04T06:47:51.206Z,73.98
2023-05-04T06:48:51.173Z,72.69
2023-05-04T06:49:51.135Z,73.10
2023-05-04T06:50:51.152Z,73.16
2023-05-04T06:51:51.127Z,73.88
2023-05-04T06:52:51.140Z,74.49
2023-05-04T06:53:51.149Z,73.36
2023-05-04T06:54:51.116Z,73.06
2023-05-04T06:55:51.083Z,73.98
2023-05-04T06:56:51.077Z,73.57
2023-05-04T06:57:51.105Z,73.06
2023-05-04T06:58:51.074Z,72.14
2023-05-04T06:59:51.040Z,71.83
2023-05-04T07:00:51.066Z,71.91
2023-05-04T07:01:51.015Z,72.82
2023-05-04T07:02:51.047Z,71.83
2023-05-04T07:03:51.033Z,72.75
2023-05-04T07:04:50.985Z,73.44
2023-05-04T07:05:50.999Z,73.33
2023-05-04T07:06:50.993Z,73.54
2023-05-04T07:07:51.491Z,74.76
2023-05-04T07:08:50.964Z,74.63
2023-05-04T07:09:50.952Z,73.50
2023-05-04T07:10:50.932Z,72.38
2023-05-04T07:11:50.920Z,72.38
2023-05-04T07:12:50.938Z,71.05
2023-05-04T07:13:50.915Z,71.05
2023-05-04T07:14:50.898Z,71.67
2023-05-04T07:15:50.909Z,72.07
2023-05-04T07:16:50.858Z,71.87
2023-05-04T07:17:50.956Z,72.79
2023-05-04T07:18:50.846Z,72.58
2023-05-04T07:19:50.822Z,73.16
2023-05-04T07:20:50.816Z,73.47
2023-05-04T07:21:50.801Z,72.24
2023-05-04T07:22:50.803Z,71.53
2023-05-04T07:23:50.805Z,71.53
2023-05-04T07:24:50.775Z,71.94
2023-05-04T07:25:52.371Z,71.19
2023-05-04T07:26:50.753Z,72.00
2023-05-04T07:27:50.753Z,71.09
2023-05-04T07:28:50.787Z,70.89
2023-05-04T07:29:50.722Z,72.21
2023-05-04T07:30:50.716Z,71.87
2023-05-04T07:31:50.723Z,71.77
2023-05-04T07:32:50.725Z,70.17
2023-05-04T07:33:50.708Z,70.85
2023-05-04T07:34:50.684Z,70.24
2023-05-04T07:35:50.652Z,69.83
2023-05-04T07:36:50.638Z,69.83
2023-05-04T07:37:50.631Z,70.92
2023-05-04T07:38:50.628Z,70.61
2023-05-04T07:39:50.608Z,70.51
2023-05-04T07:40:50.602Z,69.39
2023-05-04T07:41:50.601Z,69.80
2023-05-04T07:42:50.581Z,68.95
2023-05-04T07:43:50.581Z,69.06
2023-05-04T07:44:50.556Z,68.85
2023-05-04T07:45:50.754Z,69.67
2023-05-04T07:46:50.528Z,70.07
2023-05-04T07:47:52.510Z,69.56
2023-05-04T07:48:50.563Z,68.24
2023-05-04T07:49:50.499Z,68.10
2023-05-04T07:50:50.483Z,67.39
2023-05-04T07:51:50.476Z,67.60
2023-05-04T07:52:50.466Z,68.71
2023-05-04T07:53:50.467Z,67.69
2023-05-04T07:54:50.436Z,68.07
2023-05-04T07:55:50.425Z,68.38
2023-05-04T07:56:50.423Z,67.46
2023-05-04T07:57:50.414Z,67.66
2023-05-04T07:58:50.660Z,67.87
2023-05-04T07:59:50.370Z,67.87
2023-05-04T08:00:50.373Z,67.94
2023-05-04T08:01:50.392Z,68.55
2023-05-04T08:02:50.421Z,68.32
2023-05-04T08:03:50.359Z,67.71
2023-05-04T08:04:50.332Z,66.58
2023-05-04T08:05:50.321Z,65.88
2023-05-04T08:06:50.323Z,65.47
2023-05-04T08:07:50.306Z,65.97
2023-05-04T08:08:52.720Z,66.08
2023-05-04T08:09:50.287Z,67.10
2023-05-04T08:10:50.271Z,66.99
2023-05-04T08:11:50.250Z,67.80
2023-05-04T08:12:50.267Z,66.49
2023-05-04T08:13:50.331Z,65.64
2023-05-04T08:14:50.377Z,65.54
2023-05-04T08:15:50.205Z,65.44
2023-05-04T08:16:50.226Z,65.20
2023-05-04T08:17:50.211Z,65.20
2023-05-04T08:18:50.190Z,64.90
2023-05-04T08:19:50.169Z,64.49
2023-05-04T08:20:50.149Z,64.59
2023-05-04T08:21:50.147Z,64.59
2023-05-04T08:22:50.142Z,65.41
2023-05-04T08:23:50.147Z,64.90
2023-05-04T08:24:50.114Z,64.18
2023-05-04T08:25:50.105Z,65.71
2023-05-04T08:27:03.582Z,66.93
2023-05-04T08:27:50.108Z,65.61
2023-05-04T08:28:50.107Z,65.68
2023-05-04T08:29:50.057Z,66.39
2023-05-04T08:30:50.055Z,66.08
2023-05-04T08:31:50.080Z,64.26
2023-05-04T08:32:50.040Z,65.58
2023-05-04T08:33:50.039Z,64.67
2023-05-04T08:34:50.020Z,64.13
2023-05-04T08:35:50.030Z,64.64
2023-05-04T08:36:49.982Z,64.13
2023-05-04T08:37:49.972Z,65.52
2023-05-04T08:38:49.984Z,65.21
2023-05-04T08:39:49.955Z,63.72
2023-05-04T08:40:50.664Z,64.61
2023-05-04T08:41:49.935Z,64.91
2023-05-04T08:42:49.923Z,63.08
2023-05-04T08:43:49.912Z,62.57
2023-05-04T08:44:49.905Z,63.46
2023-05-04T08:45:49.901Z,62.34
2023-05-04T08:46:49.892Z,62.45
2023-05-04T08:47:49.910Z,61.56
2023-05-04T08:48:49.862Z,62.27
2023-05-04T08:49:49.869Z,61.97
2023-05-04T08:50:49.840Z,63.15
2023-05-04T08:51:49.818Z,61.56
2023-05-04T08:52:49.803Z,63.56
2023-05-04T08:53:49.800Z,63.26
2023-05-04T08:54:50.614Z,62.72
2023-05-04T08:55:49.923Z,63.43
2023-05-04T08:56:49.759Z,62.79
2023-05-04T08:57:51.171Z,62.69
2023-05-04T08:58:49.811Z,61.27
2023-05-04T08:59:49.754Z,61.68
2023-05-04T09:00:49.753Z,62.96
2023-05-04T09:01:49.791Z,62.15
2023-05-04T09:02:49.761Z,60.91
2023-05-04T09:03:49.927Z,60.81
2023-05-04T09:04:49.688Z,60.20
2023-05-04T09:05:49.659Z,61.29
2023-05-04T09:06:49.652Z,59.49
2023-05-04T09:07:49.647Z,61.41
2023-05-04T09:08:50.148Z,60.41
2023-05-04T09:09:49.648Z,60.03
2023-05-04T09:10:49.614Z,59.52
2023-05-04T09:11:49.600Z,60.91
2023-05-04T09:12:49.629Z,61.44
2023-05-04T09:13:49.576Z,60.43
2023-05-04T09:14:49.604Z,60.23
2023-05-04T09:15:49.568Z,60.94
2023-05-04T09:16:49.639Z,60.43
2023-05-04T09:17:57.451Z,59.92
2023-05-04T09:18:49.522Z,59.83
2023-05-04T09:19:49.545Z,59.83
2023-05-04T09:20:49.506Z,59.63
2023-05-04T09:21:49.489Z,61.24
2023-05-04T09:22:49.485Z,61.04
2023-05-04T09:23:49.526Z,61.85
2023-05-04T09:24:49.487Z,61.32
2023-05-04T09:25:49.460Z,61.62
2023-05-04T09:26:49.460Z,61.01
2023-05-04T09:27:49.423Z,58.92
2023-05-04T09:28:49.408Z,59.42
2023-05-04T09:29:49.422Z,58.92
2023-05-04T09:30:49.422Z,58.51
2023-05-04T09:31:49.399Z,58.41
2023-05-04T09:32:49.492Z,58.92
2023-05-04T09:33:50.959Z,58.20
2023-05-04T09:34:49.367Z,60.23
2023-05-04T09:35:49.339Z,60.23
2023-05-04T09:36:49.341Z,60.61
2023-05-04T09:37:49.328Z,61.11
2023-05-04T09:38:49.367Z,58.96
2023-05-04T09:39:49.323Z,59.16
2023-05-04T09:40:49.278Z,58.76
2023-05-04T09:41:49.277Z,58.96
2023-05-04T09:42:49.268Z,59.64
2023-05-04T09:43:49.253Z,59.54
2023-05-04T09:44:49.256Z,58.02
2023-05-04T09:45:49.259Z,58.05
2023-05-04T09:46:49.312Z,59.67
2023-05-04T09:47:49.270Z,59.97
2023-05-04T09:48:49.202Z,58.93
2023-05-04T09:49:49.201Z,58.23
2023-05-04T09:50:49.210Z,57.82
2023-05-04T09:51:49.172Z,57.92
2023-05-04T09:52:49.204Z,57.62
2023-05-04T09:53:49.143Z,57.11
2023-05-04T09:54:49.171Z,58.20
2023-05-04T09:55:49.118Z,58.00
2023-05-04T09:56:49.126Z,55.57
2023-05-04T09:57:49.107Z,55.47
2023-05-04T09:58:49.103Z,56.35
2023-05-04T09:59:49.094Z,55.14
2023-05-04T10:00:49.088Z,56.05
2023-05-04T10:01:49.153Z,57.43
2023-05-04T10:02:49.130Z,54.94
2023-05-04T10:03:49.039Z,55.04
2023-05-04T10:04:49.040Z,55.74
2023-05-04T10:05:49.100Z,56.05
2023-05-04T10:06:49.004Z,57.46
2023-05-04T10:07:48.997Z,59.08
2023-05-04T10:08:48.989Z,56.93
2023-05-04T10:09:48.998Z,56.81
2023-05-04T10:10:48.949Z,56.90
2023-05-04T10:11:48.944Z,53.67
2023-05-04T10:12:48.953Z,53.78
2023-05-04T10:13:48.925Z,52.97
2023-05-04T10:14:48.929Z,52.87
2023-05-04T10:15:48.928Z,53.88
2023-05-04T10:16:48.896Z,54.28
2023-05-04T10:17:48.907Z,53.07
2023-05-04T10:18:48.870Z,54.38
2023-05-04T10:19:48.876Z,55.79
2023-05-04T10:20:48.848Z,56.70
2023-05-04T10:21:48.836Z,57.10
2023-05-04T10:22:48.829Z,56.17
2023-05-04T10:23:48.805Z,55.16
2023-05-04T10:24:48.813Z,53.85
2023-05-04T10:25:48.791Z,56.24
2023-05-04T10:26:48.781Z,57.32
2023-05-04T10:27:48.766Z,53.70
2023-05-04T10:28:48.753Z,52.39
2023-05-04T10:29:48.765Z,51.31
2023-05-04T10:30:48.728Z,52.92
2023-05-04T10:31:48.750Z,52.92
2023-05-04T10:32:49.290Z,53.52
2023-05-04T10:33:48.711Z,52.82
2023-05-04T10:34:48.739Z,54.71
2023-05-04T10:35:48.681Z,54.99
2023-05-04T10:36:48.666Z,51.89
2023-05-04T10:37:48.653Z,53.38
2023-05-04T10:38:48.648Z,53.47
2023-05-04T10:39:48.652Z,54.05
2023-05-04T10:40:48.623Z,54.05
2023-05-04T10:41:48.618Z,53.85
2023-05-04T10:42:48.606Z,50.53
2023-05-04T10:43:48.617Z,52.14
2023-05-04T10:44:48.606Z,50.83
2023-05-04T10:45:48.578Z,50.15
2023-05-04T10:46:48.571Z,51.23
2023-05-04T10:47:48.594Z,51.84
2023-05-04T10:48:48.545Z,52.44
2023-05-04T10:49:48.542Z,52.44
2023-05-04T10:50:48.527Z,52.14
2023-05-04T10:51:49.654Z,50.53
2023-05-04T10:52:48.500Z,51.34
2023-05-04T10:53:48.482Z,51.93
2023-05-04T10:54:48.807Z,50.33
2023-05-04T10:55:48.471Z,51.14
2023-05-04T10:56:48.491Z,52.94
2023-05-04T10:57:48.437Z,52.62
2023-05-04T10:58:48.470Z,52.09
2023-05-04T10:59:48.482Z,51.18
2023-05-04T11:00:48.474Z,50.18
2023-05-04T11:01:48.402Z,50.86
2023-05-04T11:02:48.470Z,52.87
2023-05-04T11:03:48.418Z,49.05
2023-05-04T11:04:49.173Z,50.58
2023-05-04T11:05:48.375Z,49.40
2023-05-04T11:06:48.367Z,49.10
2023-05-04T11:07:48.327Z,50.81
2023-05-04T11:08:49.253Z,50.33
2023-05-04T11:09:48.338Z,49.15
2023-05-04T11:10:48.392Z,50.48
2023-05-04T11:11:48.289Z,51.48
2023-05-04T11:12:48.315Z,50.78
2023-05-04T11:13:48.287Z,49.67
2023-05-04T11:14:48.295Z,49.67
2023-05-04T11:15:48.285Z,49.59
2023-05-04T11:16:48.361Z,50.90
2023-05-04T11:17:48.272Z,52.42
2023-05-04T11:18:48.209Z,52.94
2023-05-04T11:19:48.220Z,53.45
2023-05-04T11:20:48.194Z,55.16
2023-05-04T11:21:48.182Z,52.64
2023-05-04T11:22:48.185Z,52.51
2023-05-04T11:23:48.159Z,52.62
2023-05-04T11:24:48.335Z,54.10
2023-05-04T11:25:48.166Z,51.28
2023-05-04T11:26:48.754Z,50.27
2023-05-04T11:27:48.108Z,51.59
2023-05-04T11:28:48.130Z,51.79
2023-05-04T11:29:48.112Z,50.07
2023-05-04T11:30:48.082Z,50.27
2023-05-04T11:31:48.093Z,50.35
2023-05-04T11:32:48.087Z,50.96
2023-05-04T11:33:48.059Z,52.06
2023-05-04T11:34:48.065Z,51.14
2023-05-04T11:35:48.025Z,51.34
2023-05-04T11:36:49.831Z,49.52
2023-05-04T11:37:48.023Z,49.73
2023-05-04T11:38:47.992Z,49.93
2023-05-04T11:39:47.997Z,50.33
2023-05-04T11:40:48.013Z,50.02
2023-05-04T11:41:47.960Z,50.33
2023-05-04T11:42:47.968Z,50.81
2023-05-04T11:43:47.953Z,52.11
2023-05-04T11:44:47.957Z,49.80
2023-05-04T11:45:47.924Z,51.21
2023-05-04T11:46:47.988Z,51.29
2023-05-04T11:47:47.958Z,50.48
2023-05-04T11:48:47.904Z,49.85
2023-05-04T11:49:47.903Z,50.96
2023-05-04T11:50:47.905Z,48.55
2023-05-04T11:51:47.859Z,48.75
2023-05-04T11:52:47.866Z,50.13
2023-05-04T11:53:47.834Z,49.53
2023-05-04T11:54:47.825Z,50.33
2023-05-04T11:55:47.837Z,50.33
2023-05-04T11:56:47.801Z,50.73
2023-05-04T11:57:47.805Z,49.53
2023-05-04T11:58:47.789Z,50.15
2023-05-04T11:59:47.767Z,51.76
2023-05-04T12:00:47.783Z,50.53
2023-05-04T12:01:47.769Z,50.03
2023-05-04T12:02:47.833Z,50.93
2023-05-04T12:03:53.597Z,50.46
2023-05-04T12:04:47.735Z,50.56
2023-05-04T12:05:47.785Z,50.86
2023-05-04T12:06:47.700Z,50.33
2023-05-04T12:07:47.744Z,49.53
2023-05-04T12:08:47.671Z,48.52
2023-05-04T12:09:47.664Z,49.53
2023-05-04T12:10:47.674Z,50.41
2023-05-04T12:11:47.644Z,51.72
2023-05-04T12:12:47.626Z,49.21
2023-05-04T12:13:47.626Z,48.90
2023-05-04T12:14:47.615Z,48.60
2023-05-04T12:15:47.625Z,49.30
2023-05-04T12:16:47.627Z,49.71
2023-05-04T12:17:47.631Z,47.92
2023-05-04T12:18:47.569Z,49.22
2023-05-04T12:19:47.566Z,48.63
2023-05-04T12:20:47.554Z,49.25
2023-05-04T12:21:47.532Z,49.25
2023-05-04T12:22:47.526Z,49.25
2023-05-04T12:23:47.514Z,50.46
2023-05-04T12:24:47.500Z,50.96
2023-05-04T12:25:57.412Z,48.55
2023-05-04T12:26:47.487Z,50.05
2023-05-04T12:27:47.475Z,50.96
2023-05-04T12:28:47.490Z,51.04
2023-05-04T12:29:47.445Z,51.42
2023-05-04T12:30:47.456Z,50.99
2023-05-04T12:31:47.475Z,51.06
2023-05-04T12:32:47.417Z,48.86
2023-05-04T12:33:47.416Z,49.43
2023-05-04T12:34:47.415Z,49.13
2023-05-04T12:35:47.406Z,47.13
2023-05-04T12:36:47.370Z,47.73
2023-05-04T12:37:47.361Z,48.83
2023-05-04T12:38:47.350Z,47.53
2023-05-04T12:39:47.335Z,47.96
2023-05-04T12:40:47.339Z,47.85
2023-05-04T12:41:47.311Z,48.35
2023-05-04T12:42:47.301Z,48.66
2023-05-04T12:43:47.302Z,47.25
2023-05-04T12:44:47.280Z,47.38
2023-05-04T12:45:47.325Z,48.20
2023-05-04T12:46:47.280Z,48.70
2023-05-04T12:47:47.312Z,48.10
2023-05-04T12:48:47.235Z,48.00
2023-05-04T12:49:47.257Z,50.41
2023-05-04T12:50:47.231Z,49.21
2023-05-04T12:51:47.201Z,48.60
2023-05-04T12:52:47.198Z,49.18
2023-05-04T12:53:47.187Z,48.50